createdAt,value
2022-09-20T00:02:15.697Z,12.30
2022-09-20T00:04:50.586Z,12.30
2022-09-20T00:07:18.786Z,12.30
2022-09-20T00:09:53.526Z,12.30
2022-09-20T00:12:22.918Z,12.30
2022-09-20T00:14:57.840Z,12.30
2022-09-20T00:17:26.077Z,12.30
2022-09-20T00:20:00.547Z,12.30
2022-09-20T00:22:28.663Z,12.30
2022-09-20T00:25:03.569Z,12.20
2022-09-20T00:27:39.750Z,12.30
2022-09-20T00:30:17.549Z,12.20
2022-09-20T00:32:45.625Z,12.20
2022-09-20T00:35:19.677Z,12.20
2022-09-20T00:37:47.746Z,12.20
2022-09-20T00:40:26.582Z,12.10
2022-09-20T00:42:56.200Z,12.10
2022-09-20T00:45:32.589Z,12.10
2022-09-20T00:48:04.776Z,12.10
2022-09-20T00:50:44.598Z,12.20
2022-09-20T00:53:17.162Z,12.20
2022-09-20T00:55:57.578Z,12.10
2022-09-20T00:58:29.557Z,12.10
2022-09-20T01:01:06.673Z,12.10
2022-09-20T01:03:37.783Z,12.20
2022-09-20T01:06:17.616Z,12.20
2022-09-20T01:08:50.166Z,12.20
2022-09-20T01:11:24.597Z,12.20
2022-09-20T01:13:54.055Z,12.20
2022-09-20T01:16:29.634Z,12.20
2022-09-20T01:18:59.504Z,12.20
2022-09-20T01:21:34.616Z,12.20
2022-09-20T01:24:16.055Z,12.20
2022-09-20T01:27:14.653Z,12.10
2022-09-20T01:30:00.789Z,12.00
2022-09-20T01:32:43.584Z,11.90
2022-09-20T01:35:13.275Z,11.90
2022-09-20T01:38:01.598Z,11.90
2022-09-20T01:40:36.007Z,11.90
2022-09-20T01:43:21.823Z,12.00
2022-09-20T01:45:52.162Z,12.00
2022-09-20T01:48:35.605Z,12.10
2022-09-20T01:51:27.686Z,12.00
2022-09-20T01:54:28.639Z,12.10
2022-09-20T01:57:27.598Z,12.10
2022-09-20T02:00:14.656Z,12.10
2022-09-20T02:03:14.886Z,12.10
2022-09-20T02:06:13.689Z,12.10
2022-09-20T02:09:09.029Z,12.10
2022-09-20T02:12:00.643Z,12.10
2022-09-20T02:14:40.360Z,12.10
2022-09-20T02:17:20.709Z,12.10
2022-09-20T02:20:05.277Z,12.10
2022-09-20T02:22:50.715Z,12.10
2022-09-20T02:25:57.051Z,12.10
2022-09-20T02:28:45.689Z,12.10
2022-09-20T02:31:22.590Z,12.10
2022-09-20T02:34:11.665Z,12.10
2022-09-20T02:36:57.423Z,12.10
2022-09-20T02:39:39.689Z,12.10
2022-09-20T02:42:14.457Z,12.10
2022-09-20T02:45:00.683Z,12.10
2022-09-20T02:47:34.417Z,12.10
2022-09-20T02:50:22.677Z,12.00
2022-09-20T02:53:04.581Z,12.00
2022-09-20T02:55:46.681Z,12.00
2022-09-20T02:58:28.993Z,12.00
2022-09-20T03:01:11.782Z,12.00
2022-09-20T03:03:55.016Z,12.00
2022-09-20T03:06:36.671Z,12.00
2022-09-20T03:09:15.037Z,11.90
2022-09-20T03:11:56.771Z,11.90
2022-09-20T03:14:29.394Z,11.90
2022-09-20T03:17:17.686Z,11.90
2022-09-20T03:20:00.701Z,11.90
2022-09-20T03:22:42.716Z,11.90
2022-09-20T03:25:49.258Z,11.80
2022-09-20T03:28:43.740Z,11.80
2022-09-20T03:31:24.129Z,11.80
2022-09-20T03:34:10.889Z,11.80
2022-09-20T03:36:54.279Z,11.80
2022-09-20T03:39:44.749Z,11.80
2022-09-20T03:42:20.168Z,11.80
2022-09-20T03:45:24.742Z,11.80
2022-09-20T03:48:16.542Z,11.70
2022-09-20T03:51:02.714Z,11.70
2022-09-20T03:54:00.951Z,11.60
2022-09-20T03:56:59.752Z,11.60
2022-09-20T03:59:45.008Z,11.50
2022-09-20T04:02:41.996Z,11.40
2022-09-20T04:05:16.776Z,11.50
2022-09-20T04:08:07.784Z,11.40
2022-09-20T04:10:48.332Z,11.40
2022-09-20T04:13:42.787Z,11.40
2022-09-20T04:16:28.317Z,11.50
2022-09-20T04:19:10.756Z,11.50
2022-09-20T04:21:44.935Z,11.50
2022-09-20T04:24:30.776Z,11.50
2022-09-20T04:27:19.943Z,11.50
2022-09-20T04:30:02.806Z,11.50
2022-09-20T04:32:37.125Z,11.50
2022-09-20T04:35:39.789Z,11.50
2022-09-20T04:38:17.775Z,11.40
2022-09-20T04:41:12.057Z,11.40
2022-09-20T04:44:28.812Z,11.40
2022-09-20T04:47:30.036Z,11.40
2022-09-20T04:50:44.773Z,11.40
2022-09-20T04:53:39.502Z,11.30
2022-09-20T04:56:27.792Z,11.40
2022-09-20T04:59:07.003Z,11.30
2022-09-20T05:02:13.894Z,11.30
2022-09-20T05:05:18.530Z,11.30
2022-09-20T05:08:29.830Z,11.30
2022-09-20T05:11:30.411Z,11.30
2022-09-20T05:14:23.935Z,11.30
2022-09-20T05:17:09.267Z,11.40
2022-09-20T05:19:55.820Z,11.40
2022-09-20T05:22:59.132Z,11.50
2022-09-20T05:26:16.049Z,11.40
2022-09-20T05:29:02.015Z,11.50
2022-09-20T05:31:46.886Z,11.50
2022-09-20T05:34:23.769Z,11.50
2022-09-20T05:37:05.866Z,11.50
2022-09-20T05:39:40.205Z,11.50
2022-09-20T05:42:29.860Z,11.50
2022-09-20T05:45:15.076Z,11.50
2022-09-20T05:47:59.883Z,11.40
2022-09-20T05:50:47.539Z,11.40
2022-09-20T05:54:06.920Z,11.40
2022-09-20T05:56:46.358Z,11.30
2022-09-20T05:59:41.849Z,11.30
2022-09-20T06:02:22.552Z,11.30
2022-09-20T06:05:07.904Z,11.30
2022-09-20T06:08:09.763Z,11.30
2022-09-20T06:11:04.928Z,11.30
2022-09-20T06:14:03.846Z,11.20
2022-09-20T06:16:49.932Z,11.20
2022-09-20T06:19:26.764Z,11.20
2022-09-20T06:22:03.994Z,11.20
2022-09-20T06:24:38.249Z,11.20
2022-09-20T06:27:25.866Z,11.30
2022-09-20T06:30:01.347Z,11.30
2022-09-20T06:32:35.841Z,11.40
2022-09-20T06:35:05.452Z,11.40
2022-09-20T06:38:07.853Z,11.40
2022-09-20T06:41:02.042Z,11.40
2022-09-20T06:43:37.854Z,11.40
2022-09-20T06:46:07.879Z,11.50
2022-09-20T06:48:44.905Z,11.50
2022-09-20T06:51:12.980Z,11.60
2022-09-20T06:53:48.879Z,11.70
2022-09-20T06:56:20.513Z,11.70
2022-09-20T06:58:54.932Z,11.80
2022-09-20T07:01:30.190Z,11.90
2022-09-20T07:04:05.912Z,12.00
2022-09-20T07:06:34.615Z,12.00
2022-09-20T07:09:09.060Z,12.00
2022-09-20T07:11:37.413Z,12.10
2022-09-20T07:14:13.918Z,12.10
2022-09-20T07:16:43.441Z,12.20
2022-09-20T07:19:17.936Z,12.30
2022-09-20T07:21:46.031Z,12.30
2022-09-20T07:24:21.908Z,12.40
2022-09-20T07:27:04.968Z,12.40
2022-09-20T07:29:41.947Z,12.40
2022-09-20T07:32:11.518Z,12.30
2022-09-20T07:34:46.987Z,12.30
2022-09-20T07:37:15.090Z,12.30
2022-09-20T07:39:49.934Z,12.20
2022-09-20T07:42:18.024Z,12.20
2022-09-20T07:44:53.958Z,12.10
2022-09-20T07:47:25.515Z,12.10
2022-09-20T07:49:59.924Z,12.10
2022-09-20T07:52:28.063Z,12.20
2022-09-20T07:55:02.938Z,12.30
2022-09-20T07:57:30.993Z,12.30
2022-09-20T08:00:05.934Z,12.40
2022-09-20T08:02:41.940Z,12.30
2022-09-20T08:05:10.331Z,12.30
2022-09-20T08:07:45.954Z,12.40
2022-09-20T08:10:14.095Z,12.40
2022-09-20T08:15:40.394Z,12.50
2022-09-20T08:18:17.959Z,12.60
2022-09-20T08:20:46.438Z,12.80
2022-09-20T08:23:23.902Z,12.80
2022-09-20T08:26:11.974Z,12.90
2022-09-20T08:28:48.018Z,13.10
2022-09-20T08:31:19.443Z,13.30
2022-09-20T08:33:56.945Z,13.50
2022-09-20T08:36:26.585Z,13.50
2022-09-20T08:41:54.509Z,13.80
2022-09-20T08:44:35.414Z,14.00
2022-09-20T08:47:11.315Z,14.00
2022-09-20T08:49:48.068Z,13.90
2022-09-20T08:52:20.564Z,13.80
2022-09-20T08:54:54.985Z,13.80
2022-09-20T08:57:23.187Z,13.80
2022-09-20T08:59:58.027Z,13.80
2022-09-20T09:02:26.456Z,13.90
2022-09-20T09:05:03.058Z,13.90
2022-09-20T09:07:31.994Z,13.90
2022-09-20T09:10:00.672Z,13.80
2022-09-20T09:12:39.108Z,13.80
2022-09-20T09:15:29.270Z,13.80
2022-09-20T09:18:05.075Z,13.80
2022-09-20T09:20:43.359Z,13.80
2022-09-20T09:23:32.041Z,13.90
2022-09-20T09:26:20.044Z,14.00
2022-09-20T09:28:48.454Z,14.30
2022-09-20T09:31:32.034Z,14.60
2022-09-20T09:34:00.103Z,14.80
2022-09-20T09:36:36.090Z,15.10
2022-09-20T09:39:23.651Z,15.30
2022-09-20T09:41:59.052Z,15.60
2022-09-20T09:44:29.018Z,15.60
2022-09-20T09:47:05.061Z,15.60
2022-09-20T09:49:36.246Z,15.50
2022-09-20T09:52:20.054Z,15.60
2022-09-20T09:54:50.731Z,15.80
2022-09-20T09:57:47.059Z,15.90
2022-09-20T10:00:22.026Z,16.00
2022-09-20T10:03:25.059Z,15.90
2022-09-20T10:06:11.863Z,15.90
2022-09-20T10:09:01.078Z,16.00
2022-09-20T10:11:40.174Z,15.80
2022-09-20T10:14:30.234Z,15.70
2022-09-20T10:17:13.369Z,16.00
2022-09-20T10:20:03.068Z,16.10
2022-09-20T10:22:39.169Z,15.90
2022-09-20T10:25:30.125Z,16.10
2022-09-20T10:28:19.429Z,16.20
2022-09-20T10:31:08.125Z,16.20
2022-09-20T10:33:45.441Z,16.20
2022-09-20T10:36:32.076Z,16.50
2022-09-20T10:39:06.944Z,17.00
2022-09-20T10:42:10.116Z,17.20
2022-09-20T10:45:00.120Z,17.40
2022-09-20T10:47:34.828Z,17.20
2022-09-20T10:50:22.139Z,16.90
2022-09-20T10:53:09.238Z,16.80
2022-09-20T10:55:53.176Z,16.90
2022-09-20T10:59:03.797Z,17.00
2022-09-20T11:01:46.108Z,17.30
2022-09-20T11:04:39.225Z,17.50
2022-09-20T11:07:20.137Z,17.40
2022-09-20T11:09:53.275Z,17.30
2022-09-20T11:12:33.108Z,17.50
2022-09-20T11:15:07.083Z,17.80
2022-09-20T11:17:47.097Z,17.80
2022-09-20T11:20:20.771Z,17.70
2022-09-20T11:23:14.147Z,17.10
2022-09-20T11:26:06.131Z,16.80
2022-09-20T11:28:45.134Z,17.00
2022-09-20T11:31:21.167Z,17.50
2022-09-20T11:34:03.164Z,17.50
2022-09-20T11:36:38.350Z,17.50
2022-09-20T11:39:21.159Z,17.30
2022-09-20T11:41:55.164Z,17.10
2022-09-20T11:44:30.206Z,17.20
2022-09-20T11:47:05.182Z,17.50
2022-09-20T11:49:48.148Z,18.00
2022-09-20T11:52:31.073Z,18.40
2022-09-20T11:55:35.164Z,19.00
2022-09-20T11:58:06.843Z,19.20
2022-09-20T12:00:45.138Z,19.50
2022-09-20T12:03:31.565Z,19.40
2022-09-20T12:06:09.186Z,18.50
2022-09-20T12:08:39.940Z,17.90
2022-09-20T12:11:18.192Z,17.80
2022-09-20T12:13:55.571Z,17.50
2022-09-20T12:16:45.253Z,17.80
2022-09-20T12:19:15.757Z,18.00
2022-09-20T12:22:35.170Z,18.20
2022-09-20T12:25:37.374Z,18.50
2022-09-20T12:28:23.224Z,18.80
2022-09-20T12:31:38.935Z,18.60
2022-09-20T12:34:41.180Z,18.70
2022-09-20T12:37:23.907Z,18.80
2022-09-20T12:40:01.265Z,18.70
2022-09-20T12:42:31.752Z,18.40
2022-09-20T12:45:10.228Z,18.20
2022-09-20T12:47:39.234Z,17.90
2022-09-20T12:50:40.462Z,17.90
2022-09-20T12:53:14.645Z,18.00
2022-09-20T12:56:02.270Z,17.80
2022-09-20T12:58:55.476Z,17.70
2022-09-20T13:01:40.582Z,17.40
2022-09-20T13:05:01.264Z,17.00
2022-09-20T13:08:02.052Z,16.90
2022-09-20T13:10:41.255Z,16.70
2022-09-20T13:13:33.669Z,16.50
2022-09-20T13:16:13.380Z,16.50
2022-09-20T13:18:42.183Z,16.50
2022-09-20T13:21:17.228Z,16.40
2022-09-20T13:23:52.401Z,16.30
2022-09-20T13:26:34.250Z,16.30
2022-09-20T13:29:10.489Z,16.10
2022-09-20T13:31:45.292Z,16.00
2022-09-20T13:34:23.875Z,15.90
2022-09-20T13:37:01.309Z,15.80
2022-09-20T13:39:37.791Z,15.80
2022-09-20T13:42:18.275Z,15.80
2022-09-20T13:44:47.357Z,15.90
2022-09-20T13:47:30.289Z,16.00
2022-09-20T13:50:02.622Z,16.10
2022-09-20T13:52:39.285Z,16.10
2022-09-20T13:55:34.414Z,16.10
2022-09-20T13:58:12.460Z,16.10
2022-09-20T14:00:47.669Z,16.10
2022-09-20T14:03:25.263Z,16.20
2022-09-20T14:05:56.540Z,16.20
2022-09-20T14:08:34.322Z,16.10
2022-09-20T14:11:13.259Z,16.00
2022-09-20T14:13:49.307Z,15.90
2022-09-20T14:16:18.980Z,16.00
2022-09-20T14:18:55.340Z,16.00
2022-09-20T14:21:25.556Z,16.00
2022-09-20T14:24:04.300Z,16.00
2022-09-20T14:26:42.341Z,16.00
2022-09-20T14:29:35.308Z,16.00
2022-09-20T14:32:08.123Z,16.00
2022-09-20T14:34:44.324Z,15.90
2022-09-20T14:37:18.444Z,15.90
2022-09-20T14:39:57.318Z,15.80
2022-09-20T14:42:32.046Z,15.80
2022-09-20T14:45:07.293Z,15.80
2022-09-20T14:47:40.463Z,15.80
2022-09-20T14:50:31.313Z,15.70
2022-09-20T14:53:29.402Z,15.60
2022-09-20T14:56:00.101Z,15.60
2022-09-20T14:58:36.311Z,15.50
2022-09-20T15:01:15.508Z,15.40
2022-09-20T15:03:50.345Z,15.40
2022-09-20T15:06:18.749Z,15.40
2022-09-20T15:08:53.344Z,15.40
2022-09-20T15:11:21.777Z,15.40
2022-09-20T15:13:57.370Z,15.50
2022-09-20T15:16:25.624Z,15.50
2022-09-20T15:19:01.343Z,15.70
2022-09-20T15:21:30.596Z,15.70
2022-09-20T15:24:05.382Z,15.80
2022-09-20T15:26:39.831Z,15.80
2022-09-20T15:29:25.486Z,15.80
2022-09-20T15:31:54.173Z,15.90
2022-09-20T15:34:28.426Z,15.90
2022-09-20T15:36:56.597Z,15.80
2022-09-20T15:39:32.427Z,15.80
2022-09-20T15:42:00.589Z,15.80
2022-09-20T15:44:36.374Z,15.90
2022-09-20T15:47:04.575Z,15.90
2022-09-20T15:49:39.374Z,15.90
2022-09-20T15:52:07.782Z,15.90
2022-09-20T15:54:44.397Z,15.90
2022-09-20T15:57:12.701Z,15.80
2022-09-20T15:59:50.392Z,15.80
2022-09-20T16:02:21.810Z,15.80
2022-09-20T16:05:00.407Z,15.80
2022-09-20T16:07:28.869Z,15.80
2022-09-20T16:10:06.460Z,15.80
2022-09-20T16:12:34.528Z,15.80
2022-09-20T16:15:10.394Z,15.70
2022-09-20T16:17:55.907Z,15.70
2022-09-20T16:20:30.474Z,15.70
2022-09-20T16:22:58.630Z,15.60
2022-09-20T16:25:34.413Z,15.70
2022-09-20T16:28:14.170Z,15.70
2022-09-20T16:30:50.428Z,15.70
2022-09-20T16:33:19.692Z,15.70
2022-09-20T16:35:54.409Z,15.70
2022-09-20T16:38:23.027Z,15.70
2022-09-20T16:41:00.441Z,15.60
2022-09-20T16:43:28.462Z,15.60
2022-09-20T16:46:08.476Z,15.60
2022-09-20T16:48:37.372Z,15.50
2022-09-20T16:51:13.528Z,15.50
2022-09-20T16:53:41.807Z,15.40
2022-09-20T16:56:21.435Z,15.40
2022-09-20T16:58:50.154Z,15.40
2022-09-20T17:01:26.481Z,15.30
2022-09-20T17:03:57.873Z,15.20
2022-09-20T17:06:33.486Z,15.20
2022-09-20T17:09:02.243Z,15.00
2022-09-20T17:11:38.464Z,14.90
2022-09-20T17:14:07.440Z,14.80
2022-09-20T17:16:45.473Z,14.80
2022-09-20T17:19:15.959Z,14.70
2022-09-20T17:21:55.477Z,14.70
2022-09-20T17:24:24.907Z,14.60
2022-09-20T17:27:00.475Z,14.60
2022-09-20T17:29:35.355Z,14.60
2022-09-20T17:32:11.526Z,14.50
2022-09-20T17:34:39.788Z,14.30
2022-09-20T17:37:14.500Z,14.30
2022-09-20T17:39:42.566Z,14.20
2022-09-20T17:42:17.466Z,14.20
2022-09-20T17:44:45.611Z,14.20
2022-09-20T17:47:21.503Z,14.10
2022-09-20T17:49:49.633Z,14.00
2022-09-20T17:52:24.523Z,13.90
2022-09-20T17:54:52.593Z,13.80
2022-09-20T17:57:27.509Z,13.80
2022-09-20T17:59:59.168Z,13.80
2022-09-20T18:02:35.608Z,13.70
2022-09-20T18:05:04.212Z,13.60
2022-09-20T18:07:40.548Z,13.60
2022-09-20T18:10:11.300Z,13.50
2022-09-20T18:12:45.552Z,13.50
2022-09-20T18:15:13.691Z,13.40
2022-09-20T18:17:54.328Z,13.40
2022-09-20T18:20:22.658Z,13.40
2022-09-20T18:22:57.548Z,13.40
2022-09-20T18:25:28.373Z,13.50
2022-09-20T18:28:10.743Z,13.40
2022-09-20T18:30:40.176Z,13.50
2022-09-20T18:33:17.588Z,13.40
2022-09-20T18:35:46.150Z,13.40
2022-09-20T18:38:23.589Z,13.40
2022-09-20T18:40:57.705Z,13.40
2022-09-20T18:43:32.625Z,13.30
2022-09-20T18:46:01.160Z,13.30
2022-09-20T18:48:40.609Z,13.30
2022-09-20T18:51:10.036Z,13.20
2022-09-20T18:53:45.555Z,13.10
2022-09-20T18:56:22.595Z,13.10
2022-09-20T18:58:58.600Z,13.00
2022-09-20T19:01:56.507Z,13.00
2022-09-20T19:04:42.665Z,13.00
2022-09-20T19:07:22.627Z,12.90
2022-09-20T19:10:02.739Z,12.90
2022-09-20T19:12:40.236Z,12.90
2022-09-20T19:15:31.565Z,12.80
2022-09-20T19:18:11.722Z,12.80
2022-09-20T19:20:53.665Z,12.80
2022-09-20T19:23:40.203Z,12.80
2022-09-20T19:26:21.785Z,12.70
2022-09-20T19:29:05.619Z,12.70
2022-09-20T19:31:34.992Z,12.60
2022-09-20T19:34:17.616Z,12.60
2022-09-20T19:36:59.991Z,12.50
2022-09-20T19:39:44.677Z,12.50
2022-09-20T19:42:20.355Z,12.40
2022-09-20T19:45:04.621Z,12.40
2022-09-20T19:47:46.578Z,12.30
2022-09-20T19:50:30.642Z,12.30
2022-09-20T19:53:02.411Z,12.30
2022-09-20T19:55:37.600Z,12.20
2022-09-20T19:58:06.546Z,12.20
2022-09-20T20:00:41.666Z,12.20
2022-09-20T20:03:12.657Z,12.10
2022-09-20T20:05:50.686Z,12.00
2022-09-20T20:08:32.915Z,11.90
2022-09-20T20:11:14.612Z,11.80
2022-09-20T20:14:03.986Z,11.80
2022-09-20T20:16:47.627Z,11.80
2022-09-20T20:19:37.201Z,11.70
2022-09-20T20:22:20.706Z,11.70
2022-09-20T20:24:54.361Z,11.60
2022-09-20T20:27:29.669Z,11.60
2022-09-20T20:29:58.076Z,11.50
2022-09-20T20:32:37.765Z,11.50
2022-09-20T20:35:12.000Z,11.50
2022-09-20T20:37:46.850Z,11.40
2022-09-20T20:40:16.630Z,11.40
2022-09-20T20:42:51.709Z,11.40
2022-09-20T20:45:21.380Z,11.40
2022-09-20T20:47:49.550Z,11.30
2022-09-20T20:50:24.652Z,11.30
2022-09-20T20:52:54.230Z,11.20
2022-09-20T20:55:30.670Z,11.30
2022-09-20T20:57:59.617Z,11.20
2022-09-20T21:00:35.747Z,11.20
2022-09-20T21:03:07.549Z,11.10
2022-09-20T21:05:44.694Z,11.10
2022-09-20T21:08:17.599Z,11.10
2022-09-20T21:10:53.694Z,11.10
2022-09-20T21:13:22.239Z,11.10
2022-09-20T21:15:56.723Z,11.00
2022-09-20T21:18:24.814Z,11.00
2022-09-20T21:20:59.689Z,11.00
2022-09-20T21:23:27.931Z,10.90
2022-09-20T21:26:28.714Z,10.90
2022-09-20T21:29:05.075Z,10.90
2022-09-20T21:31:44.723Z,10.90
2022-09-20T21:34:15.412Z,10.90
2022-09-20T21:36:51.729Z,10.90
2022-09-20T21:39:19.851Z,10.90
2022-09-20T21:41:55.726Z,10.80
2022-09-20T21:44:23.819Z,10.80
2022-09-20T21:46:58.848Z,10.80
2022-09-20T21:49:26.914Z,10.80
2022-09-20T21:52:01.732Z,10.80
2022-09-20T21:54:29.886Z,10.80
2022-09-20T21:57:05.728Z,10.80
2022-09-20T21:59:33.865Z,10.70
2022-09-20T22:02:08.748Z,10.60
2022-09-20T22:04:37.282Z,10.60
2022-09-20T22:07:11.726Z,10.60
2022-09-20T22:09:42.816Z,10.60
2022-09-20T22:12:18.738Z,10.40
2022-09-20T22:14:46.978Z,10.50
2022-09-20T22:17:21.774Z,10.50
2022-09-20T22:19:50.026Z,10.40
2022-09-20T22:22:24.768Z,10.40
2022-09-20T22:24:53.275Z,10.50
2022-09-20T22:27:32.645Z,10.40
2022-09-20T22:30:04.929Z,10.40
2022-09-20T22:32:39.794Z,10.30
2022-09-20T22:35:08.752Z,10.30
2022-09-20T22:37:43.780Z,10.30
2022-09-20T22:40:12.470Z,10.30
2022-09-20T22:42:48.812Z,10.30
2022-09-20T22:45:17.257Z,10.30
2022-09-20T22:47:52.773Z,10.30
2022-09-20T22:50:21.162Z,10.30
2022-09-20T22:52:55.804Z,10.20
2022-09-20T22:55:27.454Z,10.20
2022-09-20T22:58:03.840Z,10.20
2022-09-20T23:00:32.264Z,10.10
2022-09-20T23:03:07.874Z,10.10
2022-09-20T23:05:36.675Z,10.10
2022-09-20T23:08:11.812Z,10.10
2022-09-20T23:10:40.224Z,10.10
2022-09-20T23:13:16.817Z,10.10
2022-09-20T23:15:45.146Z,10.00
2022-09-20T23:18:19.827Z,10.00
2022-09-20T23:20:50.224Z,9.90
2022-09-20T23:23:29.810Z,9.90
2022-09-20T23:26:10.951Z,9.90
2022-09-20T23:28:50.855Z,9.90
2022-09-20T23:31:26.795Z,9.80
2022-09-20T23:34:03.820Z,9.80
2022-09-20T23:36:33.939Z,9.80
2022-09-20T23:39:08.832Z,9.70
2022-09-20T23:41:37.916Z,9.80
2022-09-20T23:44:16.985Z,9.70
2022-09-20T23:46:45.339Z,9.70
2022-09-20T23:49:20.042Z,9.70
2022-09-20T23:51:48.366Z,9.60
2022-09-20T23:54:24.968Z,9.60
2022-09-20T23:56:53.297Z,9.50
2022-09-20T23:59:29.873Z,9.60
